sensor_id;sensor_type;location;lat;lon;timestamp;P1;durP1;ratioP1;P2;durP2;ratioP2
68229;SDS011;55048;52.220;5.160;2023-05-14T00:01:00;13.73;;;9.10;;
68229;SDS011;55048;52.220;5.160;2023-05-14T00:03:25;14.40;;;9.68;;
68229;SDS011;55048;52.220;5.160;2023-05-14T00:05:51;15.82;;;9.10;;
68229;SDS011;55048;52.220;5.160;2023-05-14T00:08:17;15.18;;;9.60;;
68229;SDS011;55048;52.220;5.160;2023-05-14T00:10:43;17.73;;;10.38;;
68229;SDS011;55048;52.220;5.160;2023-05-14T00:13:09;15.85;;;8.77;;
68229;SDS011;55048;52.220;5.160;2023-05-14T00:15:34;19.88;;;9.98;;
68229;SDS011;55048;52.220;5.160;2023-05-14T00:18:01;16.70;;;9.30;;
68229;SDS011;55048;52.220;5.160;2023-05-14T00:20:27;16.58;;;9.30;;
68229;SDS011;55048;52.220;5.160;2023-05-14T00:22:53;12.20;;;9.40;;
68229;SDS011;55048;52.220;5.160;2023-05-14T00:25:18;19.02;;;9.20;;
68229;SDS011;55048;52.220;5.160;2023-05-14T00:27:44;18.10;;;9.60;;
68229;SDS011;55048;52.220;5.160;2023-05-14T00:30:10;16.17;;;9.45;;
68229;SDS011;55048;52.220;5.160;2023-05-14T00:32:36;22.23;;;9.85;;
68229;SDS011;55048;52.220;5.160;2023-05-14T00:35:02;18.17;;;9.65;;
68229;SDS011;55048;52.220;5.160;2023-05-14T00:37:28;16.42;;;9.43;;
68229;SDS011;55048;52.220;5.160;2023-05-14T00:39:54;15.10;;;9.27;;
68229;SDS011;55048;52.220;5.160;2023-05-14T00:42:20;17.30;;;8.93;;
68229;SDS011;55048;52.220;5.160;2023-05-14T00:44:46;15.07;;;10.05;;
68229;SDS011;55048;52.220;5.160;2023-05-14T00:47:12;14.73;;;8.90;;
68229;SDS011;55048;52.220;5.160;2023-05-14T00:49:38;20.30;;;9.20;;
68229;SDS011;55048;52.220;5.160;2023-05-14T00:52:05;16.10;;;9.88;;
68229;SDS011;55048;52.220;5.160;2023-05-14T00:54:31;18.15;;;9.57;;
68229;SDS011;55048;52.220;5.160;2023-05-14T00:56:58;25.15;;;10.43;;
68229;SDS011;55048;52.220;5.160;2023-05-14T00:59:24;16.00;;;9.88;;
68229;SDS011;55048;52.220;5.160;2023-05-14T01:01:50;18.15;;;10.13;;
68229;SDS011;55048;52.220;5.160;2023-05-14T01:04:16;16.70;;;9.75;;
68229;SDS011;55048;52.220;5.160;2023-05-14T01:12:14;19.00;;;9.25;;
68229;SDS011;55048;52.220;5.160;2023-05-14T01:14:49;15.90;;;9.07;;
68229;SDS011;55048;52.220;5.160;2023-05-14T01:17:21;14.07;;;9.00;;
68229;SDS011;55048;52.220;5.160;2023-05-14T01:19:49;14.93;;;10.02;;
68229;SDS011;55048;52.220;5.160;2023-05-14T01:22:17;13.95;;;9.18;;
68229;SDS011;55048;52.220;5.160;2023-05-14T01:24:49;16.50;;;9.40;;
68229;SDS011;55048;52.220;5.160;2023-05-14T01:29:41;21.05;;;10.48;;
68229;SDS011;55048;52.220;5.160;2023-05-14T01:32:14;13.98;;;8.68;;
68229;SDS011;55048;52.220;5.160;2023-05-14T01:34:42;16.92;;;9.90;;
68229;SDS011;55048;52.220;5.160;2023-05-14T01:37:12;16.35;;;9.05;;
68229;SDS011;55048;52.220;5.160;2023-05-14T01:39:38;14.65;;;9.23;;
68229;SDS011;55048;52.220;5.160;2023-05-14T01:42:06;17.25;;;9.60;;
68229;SDS011;55048;52.220;5.160;2023-05-14T01:44:33;16.48;;;9.07;;
68229;SDS011;55048;52.220;5.160;2023-05-14T01:47:00;16.70;;;9.88;;
68229;SDS011;55048;52.220;5.160;2023-05-14T01:49:26;19.67;;;9.75;;
68229;SDS011;55048;52.220;5.160;2023-05-14T01:51:52;17.10;;;9.50;;
68229;SDS011;55048;52.220;5.160;2023-05-14T01:54:18;15.52;;;9.90;;
68229;SDS011;55048;52.220;5.160;2023-05-14T01:56:44;14.70;;;9.48;;
68229;SDS011;55048;52.220;5.160;2023-05-14T01:59:10;19.05;;;9.57;;
68229;SDS011;55048;52.220;5.160;2023-05-14T02:01:35;17.42;;;9.85;;
68229;SDS011;55048;52.220;5.160;2023-05-14T02:04:02;19.52;;;10.63;;
68229;SDS011;55048;52.220;5.160;2023-05-14T02:06:28;17.15;;;9.73;;
68229;SDS011;55048;52.220;5.160;2023-05-14T02:08:56;19.08;;;9.50;;
68229;SDS011;55048;52.220;5.160;2023-05-14T02:11:22;22.58;;;10.05;;
68229;SDS011;55048;52.220;5.160;2023-05-14T02:13:48;18.08;;;9.65;;
68229;SDS011;55048;52.220;5.160;2023-05-14T02:16:14;16.02;;;9.35;;
68229;SDS011;55048;52.220;5.160;2023-05-14T02:18:40;24.08;;;10.30;;
68229;SDS011;55048;52.220;5.160;2023-05-14T02:21:07;19.58;;;10.35;;
68229;SDS011;55048;52.220;5.160;2023-05-14T02:23:32;12.98;;;10.50;;
68229;SDS011;55048;52.220;5.160;2023-05-14T02:25:58;20.75;;;11.43;;
68229;SDS011;55048;52.220;5.160;2023-05-14T02:28:23;16.88;;;10.88;;
68229;SDS011;55048;52.220;5.160;2023-05-14T02:30:49;21.30;;;10.27;;
68229;SDS011;55048;52.220;5.160;2023-05-14T02:33:14;19.50;;;10.90;;
68229;SDS011;55048;52.220;5.160;2023-05-14T02:35:40;17.65;;;10.38;;
68229;SDS011;55048;52.220;5.160;2023-05-14T02:38:06;16.55;;;10.70;;
68229;SDS011;55048;52.220;5.160;2023-05-14T02:40:32;17.67;;;10.85;;
68229;SDS011;55048;52.220;5.160;2023-05-14T02:42:57;23.45;;;11.25;;
68229;SDS011;55048;52.220;5.160;2023-05-14T02:45:23;19.50;;;11.20;;
68229;SDS011;55048;52.220;5.160;2023-05-14T02:47:49;21.20;;;11.15;;
68229;SDS011;55048;52.220;5.160;2023-05-14T02:50:15;16.98;;;11.20;;
68229;SDS011;55048;52.220;5.160;2023-05-14T02:52:40;22.60;;;10.77;;
68229;SDS011;55048;52.220;5.160;2023-05-14T02:55:06;18.30;;;11.18;;
68229;SDS011;55048;52.220;5.160;2023-05-14T02:57:32;17.00;;;10.55;;
68229;SDS011;55048;52.220;5.160;2023-05-14T02:59:58;17.83;;;10.57;;
68229;SDS011;55048;52.220;5.160;2023-05-14T03:02:24;18.88;;;11.00;;
68229;SDS011;55048;52.220;5.160;2023-05-14T03:04:49;18.33;;;11.52;;
68229;SDS011;55048;52.220;5.160;2023-05-14T03:07:15;16.77;;;11.15;;
68229;SDS011;55048;52.220;5.160;2023-05-14T03:09:41;21.92;;;11.40;;
68229;SDS011;55048;52.220;5.160;2023-05-14T03:12:06;17.70;;;11.60;;
68229;SDS011;55048;52.220;5.160;2023-05-14T03:14:32;16.10;;;10.73;;
68229;SDS011;55048;52.220;5.160;2023-05-14T03:16:58;21.35;;;10.57;;
68229;SDS011;55048;52.220;5.160;2023-05-14T03:19:24;19.45;;;11.23;;
68229;SDS011;55048;52.220;5.160;2023-05-14T03:21:50;21.00;;;11.25;;
68229;SDS011;55048;52.220;5.160;2023-05-14T03:24:15;18.25;;;10.88;;
68229;SDS011;55048;52.220;5.160;2023-05-14T03:26:42;19.55;;;11.20;;
68229;SDS011;55048;52.220;5.160;2023-05-14T03:29:08;19.30;;;11.05;;
68229;SDS011;55048;52.220;5.160;2023-05-14T03:31:34;19.52;;;10.95;;
68229;SDS011;55048;52.220;5.160;2023-05-14T03:34:01;19.13;;;11.38;;
68229;SDS011;55048;52.220;5.160;2023-05-14T03:36:26;18.38;;;10.48;;
68229;SDS011;55048;52.220;5.160;2023-05-14T03:38:52;20.75;;;11.32;;
68229;SDS011;55048;52.220;5.160;2023-05-14T03:41:17;18.58;;;11.27;;
68229;SDS011;55048;52.220;5.160;2023-05-14T03:43:44;19.25;;;10.90;;
68229;SDS011;55048;52.220;5.160;2023-05-14T03:46:09;17.30;;;10.05;;
68229;SDS011;55048;52.220;5.160;2023-05-14T03:48:35;19.40;;;10.57;;
68229;SDS011;55048;52.220;5.160;2023-05-14T03:51:02;21.35;;;10.90;;
68229;SDS011;55048;52.220;5.160;2023-05-14T03:53:28;14.55;;;10.02;;
68229;SDS011;55048;52.220;5.160;2023-05-14T03:55:53;16.80;;;9.35;;
68229;SDS011;55048;52.220;5.160;2023-05-14T03:58:19;16.30;;;10.40;;
68229;SDS011;55048;52.220;5.160;2023-05-14T04:00:45;18.52;;;9.88;;
68229;SDS011;55048;52.220;5.160;2023-05-14T04:03:11;18.48;;;10.18;;
68229;SDS011;55048;52.220;5.160;2023-05-14T04:05:37;14.30;;;9.88;;
68229;SDS011;55048;52.220;5.160;2023-05-14T04:08:02;18.67;;;10.23;;
68229;SDS011;55048;52.220;5.160;2023-05-14T04:10:28;16.15;;;9.52;;
68229;SDS011;55048;52.220;5.160;2023-05-14T04:12:54;17.00;;;10.45;;
68229;SDS011;55048;52.220;5.160;2023-05-14T04:15:25;16.60;;;9.90;;
68229;SDS011;55048;52.220;5.160;2023-05-14T04:17:51;16.38;;;9.20;;
68229;SDS011;55048;52.220;5.160;2023-05-14T04:20:16;17.75;;;10.07;;
68229;SDS011;55048;52.220;5.160;2023-05-14T04:22:42;18.45;;;10.45;;
68229;SDS011;55048;52.220;5.160;2023-05-14T04:25:07;16.25;;;10.25;;
68229;SDS011;55048;52.220;5.160;2023-05-14T04:27:33;18.73;;;10.30;;
68229;SDS011;55048;52.220;5.160;2023-05-14T04:29:59;20.65;;;9.90;;
68229;SDS011;55048;52.220;5.160;2023-05-14T04:32:24;14.55;;;9.63;;
68229;SDS011;55048;52.220;5.160;2023-05-14T04:34:50;16.58;;;10.23;;
68229;SDS011;55048;52.220;5.160;2023-05-14T04:37:15;16.17;;;9.02;;
68229;SDS011;55048;52.220;5.160;2023-05-14T04:39:40;17.35;;;9.75;;
68229;SDS011;55048;52.220;5.160;2023-05-14T04:42:06;13.98;;;9.88;;
68229;SDS011;55048;52.220;5.160;2023-05-14T04:44:40;16.10;;;8.95;;
68229;SDS011;55048;52.220;5.160;2023-05-14T04:47:06;17.88;;;9.80;;
68229;SDS011;55048;52.220;5.160;2023-05-14T04:49:31;15.10;;;9.63;;
68229;SDS011;55048;52.220;5.160;2023-05-14T04:51:57;16.15;;;10.25;;
68229;SDS011;55048;52.220;5.160;2023-05-14T04:54:24;21.05;;;9.75;;
68229;SDS011;55048;52.220;5.160;2023-05-14T04:56:50;20.98;;;10.38;;
68229;SDS011;55048;52.220;5.160;2023-05-14T04:59:15;16.83;;;9.45;;
68229;SDS011;55048;52.220;5.160;2023-05-14T05:01:43;22.52;;;9.45;;
68229;SDS011;55048;52.220;5.160;2023-05-14T05:04:09;15.98;;;9.32;;
68229;SDS011;55048;52.220;5.160;2023-05-14T05:06:35;14.05;;;8.70;;
68229;SDS011;55048;52.220;5.160;2023-05-14T05:09:00;20.40;;;9.63;;
68229;SDS011;55048;52.220;5.160;2023-05-14T05:11:26;17.98;;;9.27;;
68229;SDS011;55048;52.220;5.160;2023-05-14T05:13:51;14.45;;;8.77;;
68229;SDS011;55048;52.220;5.160;2023-05-14T05:16:16;16.50;;;8.70;;
68229;SDS011;55048;52.220;5.160;2023-05-14T05:18:42;19.50;;;9.25;;
68229;SDS011;55048;52.220;5.160;2023-05-14T05:21:08;14.82;;;8.73;;
68229;SDS011;55048;52.220;5.160;2023-05-14T05:23:35;10.65;;;8.30;;
68229;SDS011;55048;52.220;5.160;2023-05-14T05:26:00;11.02;;;7.93;;
68229;SDS011;55048;52.220;5.160;2023-05-14T05:28:25;13.00;;;8.95;;
68229;SDS011;55048;52.220;5.160;2023-05-14T05:30:51;11.98;;;8.30;;
68229;SDS011;55048;52.220;5.160;2023-05-14T05:33:17;16.23;;;8.50;;
68229;SDS011;55048;52.220;5.160;2023-05-14T05:35:43;15.75;;;8.75;;
68229;SDS011;55048;52.220;5.160;2023-05-14T05:38:08;13.55;;;8.15;;
68229;SDS011;55048;52.220;5.160;2023-05-14T05:40:34;13.57;;;8.18;;
68229;SDS011;55048;52.220;5.160;2023-05-14T05:42:59;13.30;;;7.82;;
68229;SDS011;55048;52.220;5.160;2023-05-14T05:45:25;12.57;;;9.10;;
68229;SDS011;55048;52.220;5.160;2023-05-14T05:47:51;9.73;;;7.68;;
68229;SDS011;55048;52.220;5.160;2023-05-14T05:50:17;20.33;;;9.00;;
68229;SDS011;55048;52.220;5.160;2023-05-14T05:52:42;16.25;;;8.73;;
68229;SDS011;55048;52.220;5.160;2023-05-14T05:55:09;16.83;;;8.95;;
68229;SDS011;55048;52.220;5.160;2023-05-14T05:57:35;21.50;;;9.25;;
68229;SDS011;55048;52.220;5.160;2023-05-14T06:00:01;16.23;;;8.75;;
68229;SDS011;55048;52.220;5.160;2023-05-14T06:02:38;16.02;;;9.05;;
68229;SDS011;55048;52.220;5.160;2023-05-14T06:05:05;17.27;;;7.88;;
68229;SDS011;55048;52.220;5.160;2023-05-14T06:07:31;14.60;;;8.00;;
68229;SDS011;55048;52.220;5.160;2023-05-14T06:09:56;16.88;;;8.82;;
68229;SDS011;55048;52.220;5.160;2023-05-14T06:12:21;15.85;;;8.77;;
68229;SDS011;55048;52.220;5.160;2023-05-14T06:14:47;11.57;;;8.32;;
68229;SDS011;55048;52.220;5.160;2023-05-14T06:17:12;18.35;;;8.52;;
68229;SDS011;55048;52.220;5.160;2023-05-14T06:19:37;12.70;;;7.55;;
68229;SDS011;55048;52.220;5.160;2023-05-14T06:22:03;12.93;;;8.05;;
68229;SDS011;55048;52.220;5.160;2023-05-14T06:24:28;12.50;;;8.07;;
68229;SDS011;55048;52.220;5.160;2023-05-14T06:26:54;17.08;;;8.02;;
68229;SDS011;55048;52.220;5.160;2023-05-14T06:29:19;11.48;;;7.28;;
68229;SDS011;55048;52.220;5.160;2023-05-14T06:31:45;17.83;;;7.25;;
68229;SDS011;55048;52.220;5.160;2023-05-14T06:34:10;13.65;;;7.47;;
68229;SDS011;55048;52.220;5.160;2023-05-14T06:36:35;11.55;;;7.45;;
68229;SDS011;55048;52.220;5.160;2023-05-14T06:39:01;11.38;;;7.15;;
68229;SDS011;55048;52.220;5.160;2023-05-14T06:41:27;14.52;;;6.85;;
68229;SDS011;55048;52.220;5.160;2023-05-14T06:43:53;13.52;;;7.05;;
68229;SDS011;55048;52.220;5.160;2023-05-14T06:46:19;12.25;;;6.75;;
68229;SDS011;55048;52.220;5.160;2023-05-14T06:48:45;11.23;;;6.50;;
68229;SDS011;55048;52.220;5.160;2023-05-14T06:51:10;10.82;;;6.00;;
68229;SDS011;55048;52.220;5.160;2023-05-14T06:53:37;13.05;;;6.05;;
68229;SDS011;55048;52.220;5.160;2023-05-14T06:56:03;13.55;;;5.97;;
68229;SDS011;55048;52.220;5.160;2023-05-14T06:58:29;14.80;;;6.57;;
68229;SDS011;55048;52.220;5.160;2023-05-14T07:00:54;11.63;;;6.05;;
68229;SDS011;55048;52.220;5.160;2023-05-14T07:03:20;11.57;;;4.43;;
68229;SDS011;55048;52.220;5.160;2023-05-14T07:05:46;12.18;;;5.05;;
68229;SDS011;55048;52.220;5.160;2023-05-14T07:08:12;16.10;;;5.63;;
68229;SDS011;55048;52.220;5.160;2023-05-14T07:10:37;8.27;;;4.80;;
68229;SDS011;55048;52.220;5.160;2023-05-14T07:13:03;14.30;;;5.07;;
68229;SDS011;55048;52.220;5.160;2023-05-14T07:15:29;13.82;;;5.90;;
68229;SDS011;55048;52.220;5.160;2023-05-14T07:17:54;16.58;;;5.15;;
68229;SDS011;55048;52.220;5.160;2023-05-14T07:20:20;10.30;;;4.68;;
68229;SDS011;55048;52.220;5.160;2023-05-14T07:22:48;11.48;;;4.28;;
68229;SDS011;55048;52.220;5.160;2023-05-14T07:25:13;12.80;;;4.57;;
68229;SDS011;55048;52.220;5.160;2023-05-14T07:27:39;11.55;;;4.90;;
68229;SDS011;55048;52.220;5.160;2023-05-14T07:30:05;8.82;;;3.65;;
68229;SDS011;55048;52.220;5.160;2023-05-14T07:32:32;9.30;;;3.25;;
68229;SDS011;55048;52.220;5.160;2023-05-14T07:34:57;8.43;;;2.90;;
68229;SDS011;55048;52.220;5.160;2023-05-14T07:37:23;9.23;;;3.25;;
68229;SDS011;55048;52.220;5.160;2023-05-14T07:39:50;8.80;;;2.17;;
68229;SDS011;55048;52.220;5.160;2023-05-14T07:42:16;9.23;;;2.60;;
68229;SDS011;55048;52.220;5.160;2023-05-14T07:44:42;8.48;;;2.17;;
68229;SDS011;55048;52.220;5.160;2023-05-14T07:47:07;6.38;;;2.00;;
68229;SDS011;55048;52.220;5.160;2023-05-14T07:49:33;9.45;;;1.98;;
68229;SDS011;55048;52.220;5.160;2023-05-14T07:51:58;10.23;;;1.90;;
68229;SDS011;55048;52.220;5.160;2023-05-14T07:54:24;9.18;;;2.05;;
68229;SDS011;55048;52.220;5.160;2023-05-14T07:56:49;8.82;;;1.80;;
68229;SDS011;55048;52.220;5.160;2023-05-14T07:59:15;12.80;;;2.47;;
68229;SDS011;55048;52.220;5.160;2023-05-14T08:01:40;11.52;;;1.60;;
68229;SDS011;55048;52.220;5.160;2023-05-14T08:04:06;13.60;;;1.90;;
68229;SDS011;55048;52.220;5.160;2023-05-14T08:06:31;8.15;;;2.28;;
68229;SDS011;55048;52.220;5.160;2023-05-14T08:08:57;11.00;;;2.45;;
68229;SDS011;55048;52.220;5.160;2023-05-14T08:11:22;10.55;;;2.20;;
68229;SDS011;55048;52.220;5.160;2023-05-14T08:13:48;10.52;;;2.17;;
68229;SDS011;55048;52.220;5.160;2023-05-14T08:16:13;8.93;;;2.22;;
68229;SDS011;55048;52.220;5.160;2023-05-14T08:18:39;8.07;;;2.05;;
68229;SDS011;55048;52.220;5.160;2023-05-14T08:21:05;13.50;;;2.20;;
68229;SDS011;55048;52.220;5.160;2023-05-14T08:23:30;10.45;;;2.00;;
68229;SDS011;55048;52.220;5.160;2023-05-14T08:25:55;9.35;;;2.25;;
68229;SDS011;55048;52.220;5.160;2023-05-14T08:28:21;14.63;;;2.20;;
68229;SDS011;55048;52.220;5.160;2023-05-14T08:30:46;10.55;;;2.50;;
68229;SDS011;55048;52.220;5.160;2023-05-14T08:33:12;10.40;;;1.73;;
68229;SDS011;55048;52.220;5.160;2023-05-14T08:35:37;10.02;;;2.10;;
68229;SDS011;55048;52.220;5.160;2023-05-14T08:38:03;12.18;;;2.22;;
68229;SDS011;55048;52.220;5.160;2023-05-14T08:40:28;8.95;;;1.90;;
68229;SDS011;55048;52.220;5.160;2023-05-14T08:42:54;9.15;;;2.05;;
68229;SDS011;55048;52.220;5.160;2023-05-14T08:45:22;13.52;;;1.98;;
68229;SDS011;55048;52.220;5.160;2023-05-14T08:47:52;6.82;;;1.80;;
68229;SDS011;55048;52.220;5.160;2023-05-14T08:50:19;8.70;;;1.58;;
68229;SDS011;55048;52.220;5.160;2023-05-14T08:52:46;12.85;;;2.20;;
68229;SDS011;55048;52.220;5.160;2023-05-14T08:55:12;5.88;;;1.70;;
68229;SDS011;55048;52.220;5.160;2023-05-14T08:57:38;9.18;;;1.90;;
68229;SDS011;55048;52.220;5.160;2023-05-14T09:00:03;8.32;;;1.80;;
68229;SDS011;55048;52.220;5.160;2023-05-14T09:02:33;7.90;;;1.65;;
68229;SDS011;55048;52.220;5.160;2023-05-14T09:05:00;17.13;;;2.50;;
68229;SDS011;55048;52.220;5.160;2023-05-14T09:07:26;7.18;;;1.67;;
68229;SDS011;55048;52.220;5.160;2023-05-14T09:09:52;12.30;;;1.98;;
68229;SDS011;55048;52.220;5.160;2023-05-14T09:12:18;9.07;;;2.05;;
68229;SDS011;55048;52.220;5.160;2023-05-14T09:14:44;10.23;;;2.20;;
68229;SDS011;55048;52.220;5.160;2023-05-14T09:17:11;13.60;;;2.35;;
68229;SDS011;55048;52.220;5.160;2023-05-14T09:19:40;6.72;;;1.52;;
68229;SDS011;55048;52.220;5.160;2023-05-14T09:22:08;7.00;;;1.90;;
68229;SDS011;55048;52.220;5.160;2023-05-14T09:24:35;4.05;;;1.95;;
68229;SDS011;55048;52.220;5.160;2023-05-14T09:27:03;13.93;;;2.30;;
68229;SDS011;55048;52.220;5.160;2023-05-14T09:29:29;8.02;;;1.92;;
68229;SDS011;55048;52.220;5.160;2023-05-14T09:31:55;7.72;;;1.80;;
68229;SDS011;55048;52.220;5.160;2023-05-14T09:34:22;8.13;;;1.70;;
68229;SDS011;55048;52.220;5.160;2023-05-14T09:36:49;8.73;;;1.75;;
68229;SDS011;55048;52.220;5.160;2023-05-14T09:39:14;8.50;;;1.70;;
68229;SDS011;55048;52.220;5.160;2023-05-14T09:41:41;12.00;;;2.00;;
68229;SDS011;55048;52.220;5.160;2023-05-14T09:44:07;9.68;;;1.90;;
68229;SDS011;55048;52.220;5.160;2023-05-14T09:46:32;7.05;;;1.67;;
68229;SDS011;55048;52.220;5.160;2023-05-14T09:48:57;7.03;;;1.83;;
68229;SDS011;55048;52.220;5.160;2023-05-14T09:51:23;6.72;;;1.67;;
68229;SDS011;55048;52.220;5.160;2023-05-14T09:53:50;7.18;;;1.75;;
68229;SDS011;55048;52.220;5.160;2023-05-14T09:56:17;5.38;;;1.90;;
68229;SDS011;55048;52.220;5.160;2023-05-14T09:58:42;12.32;;;1.70;;
68229;SDS011;55048;52.220;5.160;2023-05-14T10:01:08;8.82;;;1.90;;
68229;SDS011;55048;52.220;5.160;2023-05-14T10:03:34;8.48;;;1.83;;
68229;SDS011;55048;52.220;5.160;2023-05-14T10:06:01;10.15;;;1.98;;
68229;SDS011;55048;52.220;5.160;2023-05-14T10:08:32;11.50;;;1.88;;
68229;SDS011;55048;52.220;5.160;2023-05-14T10:11:00;9.98;;;1.42;;
68229;SDS011;55048;52.220;5.160;2023-05-14T10:13:30;8.70;;;1.80;;
68229;SDS011;55048;52.220;5.160;2023-05-14T10:16:07;7.93;;;1.60;;
68229;SDS011;55048;52.220;5.160;2023-05-14T10:18:39;8.85;;;1.80;;
68229;SDS011;55048;52.220;5.160;2023-05-14T10:21:07;7.90;;;1.48;;
68229;SDS011;55048;52.220;5.160;2023-05-14T10:23:34;13.45;;;2.03;;
68229;SDS011;55048;52.220;5.160;2023-05-14T10:26:04;9.07;;;1.50;;
68229;SDS011;55048;52.220;5.160;2023-05-14T10:28:30;13.13;;;2.22;;
68229;SDS011;55048;52.220;5.160;2023-05-14T10:30:58;11.95;;;2.20;;
68229;SDS011;55048;52.220;5.160;2023-05-14T10:33:24;11.18;;;1.73;;
68229;SDS011;55048;52.220;5.160;2023-05-14T10:38:29;8.55;;;1.90;;
68229;SDS011;55048;52.220;5.160;2023-05-14T10:41:01;13.05;;;1.92;;
68229;SDS011;55048;52.220;5.160;2023-05-14T10:43:35;10.00;;;1.80;;
68229;SDS011;55048;52.220;5.160;2023-05-14T10:46:02;9.20;;;1.73;;
68229;SDS011;55048;52.220;5.160;2023-05-14T10:48:28;10.20;;;2.00;;
68229;SDS011;55048;52.220;5.160;2023-05-14T10:50:55;8.57;;;1.70;;
68229;SDS011;55048;52.220;5.160;2023-05-14T10:53:34;4.95;;;1.45;;
68229;SDS011;55048;52.220;5.160;2023-05-14T10:56:20;10.05;;;1.55;;
68229;SDS011;55048;52.220;5.160;2023-05-14T10:58:45;5.35;;;1.30;;
68229;SDS011;55048;52.220;5.160;2023-05-14T11:01:14;10.07;;;1.50;;
68229;SDS011;55048;52.220;5.160;2023-05-14T11:03:41;9.95;;;1.83;;
68229;SDS011;55048;52.220;5.160;2023-05-14T11:06:09;5.72;;;1.55;;
68229;SDS011;55048;52.220;5.160;2023-05-14T11:08:35;8.32;;;1.70;;
68229;SDS011;55048;52.220;5.160;2023-05-14T11:11:01;8.05;;;1.80;;
68229;SDS011;55048;52.220;5.160;2023-05-14T11:13:27;14.13;;;2.38;;
68229;SDS011;55048;52.220;5.160;2023-05-14T11:15:52;11.60;;;2.05;;
68229;SDS011;55048;52.220;5.160;2023-05-14T11:18:25;12.38;;;2.00;;
68229;SDS011;55048;52.220;5.160;2023-05-14T11:20:51;8.10;;;1.73;;
68229;SDS011;55048;52.220;5.160;2023-05-14T11:23:18;13.13;;;2.25;;
68229;SDS011;55048;52.220;5.160;2023-05-14T11:25:45;6.78;;;1.88;;
68229;SDS011;55048;52.220;5.160;2023-05-14T11:28:10;10.70;;;2.08;;
68229;SDS011;55048;52.220;5.160;2023-05-14T11:30:36;10.45;;;1.83;;
68229;SDS011;55048;52.220;5.160;2023-05-14T11:33:02;13.80;;;1.67;;
68229;SDS011;55048;52.220;5.160;2023-05-14T11:35:27;9.98;;;1.85;;
68229;SDS011;55048;52.220;5.160;2023-05-14T11:37:53;6.88;;;2.25;;
68229;SDS011;55048;52.220;5.160;2023-05-14T11:40:18;12.02;;;1.70;;
68229;SDS011;55048;52.220;5.160;2023-05-14T11:42:44;8.55;;;2.28;;
68229;SDS011;55048;52.220;5.160;2023-05-14T11:45:10;9.70;;;1.58;;
68229;SDS011;55048;52.220;5.160;2023-05-14T11:47:36;6.00;;;1.80;;
68229;SDS011;55048;52.220;5.160;2023-05-14T11:50:02;8.77;;;2.10;;
68229;SDS011;55048;52.220;5.160;2023-05-14T11:52:28;11.45;;;1.63;;
68229;SDS011;55048;52.220;5.160;2023-05-14T11:54:53;8.95;;;1.88;;
68229;SDS011;55048;52.220;5.160;2023-05-14T11:57:19;9.48;;;2.00;;
68229;SDS011;55048;52.220;5.160;2023-05-14T11:59:46;6.82;;;1.88;;
68229;SDS011;55048;52.220;5.160;2023-05-14T12:02:12;7.30;;;1.75;;
68229;SDS011;55048;52.220;5.160;2023-05-14T12:04:40;8.63;;;1.60;;
68229;SDS011;55048;52.220;5.160;2023-05-14T12:07:07;7.70;;;1.70;;
68229;SDS011;55048;52.220;5.160;2023-05-14T12:09:35;6.88;;;2.13;;
68229;SDS011;55048;52.220;5.160;2023-05-14T12:12:08;7.00;;;2.00;;
68229;SDS011;55048;52.220;5.160;2023-05-14T12:14:36;9.25;;;1.77;;
68229;SDS011;55048;52.220;5.160;2023-05-14T12:19:43;12.40;;;1.90;;
68229;SDS011;55048;52.220;5.160;2023-05-14T12:22:09;8.65;;;1.70;;
68229;SDS011;55048;52.220;5.160;2023-05-14T12:24:35;10.75;;;1.90;;
68229;SDS011;55048;52.220;5.160;2023-05-14T12:27:01;4.65;;;1.50;;
68229;SDS011;55048;52.220;5.160;2023-05-14T12:29:27;5.55;;;1.80;;
68229;SDS011;55048;52.220;5.160;2023-05-14T12:31:55;10.80;;;2.10;;
68229;SDS011;55048;52.220;5.160;2023-05-14T12:34:21;11.60;;;1.47;;
68229;SDS011;55048;52.220;5.160;2023-05-14T12:36:47;6.38;;;1.63;;
68229;SDS011;55048;52.220;5.160;2023-05-14T12:39:12;9.90;;;2.17;;
68229;SDS011;55048;52.220;5.160;2023-05-14T12:41:38;8.50;;;2.10;;
68229;SDS011;55048;52.220;5.160;2023-05-14T12:44:04;7.85;;;1.67;;
68229;SDS011;55048;52.220;5.160;2023-05-14T12:46:29;7.63;;;1.92;;
68229;SDS011;55048;52.220;5.160;2023-05-14T12:48:56;5.20;;;1.85;;
68229;SDS011;55048;52.220;5.160;2023-05-14T12:51:21;8.95;;;1.60;;
68229;SDS011;55048;52.220;5.160;2023-05-14T12:53:47;6.10;;;1.80;;
68229;SDS011;55048;52.220;5.160;2023-05-14T12:56:13;7.00;;;1.50;;
68229;SDS011;55048;52.220;5.160;2023-05-14T12:58:39;9.75;;;1.80;;
68229;SDS011;55048;52.220;5.160;2023-05-14T13:01:05;6.30;;;1.70;;
68229;SDS011;55048;52.220;5.160;2023-05-14T13:03:30;9.60;;;2.00;;
68229;SDS011;55048;52.220;5.160;2023-05-14T13:05:56;6.95;;;1.88;;
68229;SDS011;55048;52.220;5.160;2023-05-14T13:08:21;6.32;;;2.00;;
68229;SDS011;55048;52.220;5.160;2023-05-14T13:10:49;6.47;;;1.83;;
68229;SDS011;55048;52.220;5.160;2023-05-14T13:13:15;6.78;;;1.40;;
68229;SDS011;55048;52.220;5.160;2023-05-14T13:15:40;7.05;;;1.60;;
68229;SDS011;55048;52.220;5.160;2023-05-14T13:18:06;14.77;;;1.90;;
68229;SDS011;55048;52.220;5.160;2023-05-14T13:20:32;8.52;;;2.17;;
68229;SDS011;55048;52.220;5.160;2023-05-14T13:22:58;8.70;;;1.75;;
68229;SDS011;55048;52.220;5.160;2023-05-14T13:25:23;12.45;;;1.70;;
68229;SDS011;55048;52.220;5.160;2023-05-14T13:27:49;5.95;;;2.13;;
68229;SDS011;55048;52.220;5.160;2023-05-14T13:30:17;7.70;;;1.52;;
68229;SDS011;55048;52.220;5.160;2023-05-14T13:32:43;9.68;;;1.50;;
68229;SDS011;55048;52.220;5.160;2023-05-14T13:35:09;7.00;;;1.50;;
68229;SDS011;55048;52.220;5.160;2023-05-14T13:37:35;10.38;;;2.00;;
68229;SDS011;55048;52.220;5.160;2023-05-14T13:40:01;9.88;;;1.63;;
68229;SDS011;55048;52.220;5.160;2023-05-14T13:42:28;9.57;;;1.95;;
68229;SDS011;55048;52.220;5.160;2023-05-14T13:44:54;6.60;;;1.70;;
68229;SDS011;55048;52.220;5.160;2023-05-14T13:47:20;7.40;;;1.75;;
68229;SDS011;55048;52.220;5.160;2023-05-14T13:49:46;7.05;;;1.85;;
68229;SDS011;55048;52.220;5.160;2023-05-14T13:52:11;4.25;;;1.35;;
68229;SDS011;55048;52.220;5.160;2023-05-14T13:54:36;4.80;;;1.52;;
68229;SDS011;55048;52.220;5.160;2023-05-14T13:57:03;5.78;;;1.70;;
68229;SDS011;55048;52.220;5.160;2023-05-14T13:59:29;8.65;;;1.83;;
68229;SDS011;55048;52.220;5.160;2023-05-14T14:01:55;5.22;;;1.60;;
68229;SDS011;55048;52.220;5.160;2023-05-14T14:04:21;8.43;;;2.00;;
68229;SDS011;55048;52.220;5.160;2023-05-14T14:06:48;8.13;;;1.52;;
68229;SDS011;55048;52.220;5.160;2023-05-14T14:09:13;7.65;;;1.50;;
68229;SDS011;55048;52.220;5.160;2023-05-14T14:11:39;5.38;;;1.40;;
68229;SDS011;55048;52.220;5.160;2023-05-14T14:14:06;5.60;;;2.00;;
68229;SDS011;55048;52.220;5.160;2023-05-14T14:16:31;8.80;;;1.92;;
68229;SDS011;55048;52.220;5.160;2023-05-14T14:18:57;7.97;;;1.85;;
68229;SDS011;55048;52.220;5.160;2023-05-14T14:21:23;9.63;;;1.50;;
68229;SDS011;55048;52.220;5.160;2023-05-14T14:23:49;8.65;;;2.10;;
68229;SDS011;55048;52.220;5.160;2023-05-14T14:26:15;7.68;;;1.90;;
68229;SDS011;55048;52.220;5.160;2023-05-14T14:28:40;5.65;;;1.70;;
68229;SDS011;55048;52.220;5.160;2023-05-14T14:31:06;5.05;;;1.30;;
68229;SDS011;55048;52.220;5.160;2023-05-14T14:33:32;7.35;;;1.70;;
68229;SDS011;55048;52.220;5.160;2023-05-14T14:35:57;7.07;;;1.63;;
68229;SDS011;55048;52.220;5.160;2023-05-14T14:38:23;7.93;;;1.75;;
68229;SDS011;55048;52.220;5.160;2023-05-14T14:40:49;7.78;;;1.67;;
68229;SDS011;55048;52.220;5.160;2023-05-14T14:43:14;7.03;;;1.77;;
68229;SDS011;55048;52.220;5.160;2023-05-14T14:48:27;7.93;;;1.75;;